createdAt,value
2022-08-26T00:01:30.141Z,34.57
2022-08-26T00:08:06.022Z,34.38
2022-08-26T00:14:38.427Z,34.36
2022-08-26T00:21:12.410Z,34.33
2022-08-26T00:27:58.563Z,34.42
2022-08-26T00:34:34.586Z,34.43
2022-08-26T00:41:13.215Z,34.43
2022-08-26T00:48:05.100Z,34.3
2022-08-26T00:55:02.981Z,34.44
2022-08-26T01:01:56.747Z,34.48
2022-08-26T01:08:43.744Z,34.5
2022-08-26T01:15:15.825Z,34.43
2022-08-26T01:22:04.086Z,34.42
2022-08-26T01:28:56.564Z,34.51
2022-08-26T01:35:40.391Z,34.43
2022-08-26T01:42:12.930Z,34.59
2022-08-26T01:49:06.880Z,34.5
2022-08-26T01:55:43.678Z,34.45
2022-08-26T02:02:25.251Z,34.43
2022-08-26T02:09:20.701Z,34.45
2022-08-26T02:15:50.003Z,34.42
2022-08-26T02:22:30.021Z,34.46
2022-08-26T02:29:23.643Z,34.48
2022-08-26T02:36:01.990Z,34.51
2022-08-26T02:42:47.237Z,34.48
2022-08-26T02:49:28.045Z,34.55
2022-08-26T02:55:54.687Z,34.59
2022-08-26T03:02:34.111Z,34.59
2022-08-26T03:09:08.206Z,34.59
2022-08-26T03:15:37.630Z,34.66
2022-08-26T03:22:03.577Z,34.43
2022-08-26T03:28:40.584Z,34.29
2022-08-26T03:35:14.278Z,34.09
2022-08-26T03:41:38.084Z,34.5
2022-08-26T03:48:04.613Z,34.29
2022-08-26T03:54:33.562Z,34.21
2022-08-26T04:01:03.554Z,34.16
2022-08-26T04:07:46.067Z,34.08
2022-08-26T04:14:32.561Z,34.81
2022-08-26T04:21:08.161Z,35.13
2022-08-26T04:27:34.085Z,35.13
2022-08-26T04:34:11.463Z,34.99
2022-08-26T04:40:48.300Z,35.33
2022-08-26T04:47:19.428Z,35.43
2022-08-26T04:53:46.683Z,35.53
2022-08-26T05:00:23.591Z,35.64
2022-08-26T05:07:06.768Z,35.7
2022-08-26T05:13:30.422Z,35.71
2022-08-26T05:19:59.748Z,35.73
2022-08-26T05:26:37.248Z,35.68
2022-08-26T05:33:23.771Z,35.78
2022-08-26T05:39:53.040Z,35.76
2022-08-26T05:46:28.363Z,35.75
2022-08-26T05:53:02.392Z,35.64
2022-08-26T05:59:32.856Z,35.45
2022-08-26T06:06:10.990Z,35.63
2022-08-26T06:12:48.747Z,35.64
2022-08-26T06:19:23.125Z,35.71
2022-08-26T06:25:54.723Z,35.71
2022-08-26T06:32:22.385Z,35.77
2022-08-26T06:38:57.486Z,35.73
2022-08-26T06:45:32.596Z,35.8
2022-08-26T06:51:59.380Z,35.73
2022-08-26T06:58:32.774Z,35.77
2022-08-26T07:05:08.071Z,35.52
2022-08-26T07:11:45.608Z,35.3
2022-08-26T07:18:11.816Z,35.52
2022-08-26T07:24:44.243Z,35.58
2022-08-26T07:31:15.932Z,35.48
2022-08-26T07:37:44.692Z,35.53
2022-08-26T07:44:14.844Z,35.25
2022-08-26T07:50:53.769Z,35.48
2022-08-26T07:57:32.651Z,35.49
2022-08-26T08:04:10.564Z,35.66
2022-08-26T08:10:56.915Z,35.7
2022-08-26T08:17:29.710Z,35.58
2022-08-26T08:23:56.013Z,35.67
2022-08-26T08:30:27.860Z,35.68
2022-08-26T08:37:05.225Z,35.67
2022-08-26T08:43:49.826Z,35.77
2022-08-26T08:50:41.749Z,35.68
2022-08-26T08:57:45.153Z,35.65
2022-08-26T09:04:57.919Z,35.67
2022-08-26T09:11:39.156Z,35.75
2022-08-26T09:18:27.838Z,35.77
2022-08-26T09:25:19.085Z,35.77
2022-08-26T09:32:19.487Z,35.81
2022-08-26T09:39:04.741Z,35.74
2022-08-26T09:46:06.822Z,35.63
2022-08-26T09:53:17.311Z,35.56
2022-08-26T10:00:04.703Z,35.55
2022-08-26T10:06:55.128Z,35.45
2022-08-26T10:13:55.401Z,35.29
2022-08-26T10:21:04.023Z,35.41
2022-08-26T10:28:11.442Z,35.63
2022-08-26T10:35:10.794Z,35.9
2022-08-26T10:42:14.287Z,35.64
2022-08-26T10:49:28.884Z,35.64
2022-08-26T10:56:33.724Z,35.7
2022-08-26T11:03:41.743Z,35.78
2022-08-26T11:10:50.846Z,35.61
2022-08-26T11:17:56.287Z,35.39
2022-08-26T11:25:03.057Z,35.52
2022-08-26T11:32:17.890Z,35.48
2022-08-26T11:39:28.395Z,35.29
2022-08-26T11:46:30.329Z,35.5
2022-08-26T11:53:49.961Z,35.32
2022-08-26T12:00:53.593Z,35.34
2022-08-26T12:07:58.325Z,35.64
2022-08-26T12:15:05.940Z,35.72
2022-08-26T12:22:08.801Z,35.72
2022-08-26T12:29:08.510Z,35.4
2022-08-26T12:36:08.876Z,35.68
2022-08-26T12:43:08.108Z,35.52
2022-08-26T12:50:04.411Z,35.49
2022-08-26T12:57:08.247Z,35.13
2022-08-26T13:03:54.736Z,34.75
2022-08-26T13:10:36.512Z,34.87
2022-08-26T13:17:17.712Z,34.79
2022-08-26T13:23:53.941Z,34.81
2022-08-26T13:30:22.965Z,34.94
2022-08-26T13:36:49.406Z,34.96
2022-08-26T13:43:20.931Z,34.94
2022-08-26T13:49:44.377Z,34.96
2022-08-26T13:56:11.586Z,35.06
2022-08-26T14:02:34.979Z,35.02
2022-08-26T14:09:04.193Z,34.95
2022-08-26T14:15:33.974Z,34.98
2022-08-26T14:22:12.925Z,34.9
2022-08-26T14:28:49.509Z,34.96
2022-08-26T14:35:30.708Z,34.94
2022-08-26T14:42:01.307Z,35.02
2022-08-26T14:48:57.017Z,35.03
2022-08-26T14:55:34.812Z,34.98
2022-08-26T15:02:30.898Z,35.04
2022-08-26T15:09:00.016Z,34.88
2022-08-26T15:15:24.520Z,35.01
2022-08-26T15:22:01.470Z,35
2022-08-26T15:28:32.041Z,34.91
2022-08-26T15:34:56.049Z,34.99
2022-08-26T15:41:22.851Z,34.98
2022-08-26T15:48:06.929Z,34.91
2022-08-26T15:54:46.455Z,34.95
2022-08-26T16:01:23.967Z,34.96
2022-08-26T16:07:56.413Z,34.9
2022-08-26T16:14:25.013Z,34.89
2022-08-26T16:21:12.996Z,34.93
2022-08-26T16:27:39.968Z,34.88
2022-08-26T16:34:14.002Z,34.9
2022-08-26T16:40:49.065Z,34.94
2022-08-26T16:47:17.054Z,34.93
2022-08-26T16:53:48.088Z,34.98
2022-08-26T17:00:20.045Z,34.99
2022-08-26T17:06:47.483Z,35.01
2022-08-26T17:13:20.891Z,35.04
2022-08-26T17:20:04.091Z,34.93
2022-08-26T17:26:56.007Z,34.98
2022-08-26T17:33:38.557Z,35.01
2022-08-26T17:40:12.559Z,34.98
2022-08-26T17:46:52.282Z,34.99
2022-08-26T17:53:24.175Z,34.98
2022-08-26T17:59:56.294Z,35.01
2022-08-26T18:06:28.072Z,35.02
2022-08-26T18:12:56.366Z,34.99
2022-08-26T18:19:21.521Z,35.05
2022-08-26T18:25:54.085Z,35.01
2022-08-26T18:32:22.819Z,34.96
2022-08-26T18:39:01.104Z,34.96
2022-08-26T18:45:32.200Z,34.97
2022-08-26T18:52:02.942Z,35.04
2022-08-26T18:58:30.071Z,34.99
2022-08-26T19:04:58.181Z,35.04
2022-08-26T19:11:37.377Z,34.98
2022-08-26T19:18:14.550Z,34.92
2022-08-26T19:24:46.559Z,35.04
2022-08-26T19:31:21.826Z,35.06
2022-08-26T19:38:00.147Z,34.89
2022-08-26T19:44:27.400Z,34.88
2022-08-26T19:51:06.207Z,34.93
2022-08-26T19:57:42.211Z,34.89
2022-08-26T20:04:20.648Z,35.01
2022-08-26T20:10:50.579Z,35.08
2022-08-26T20:17:14.117Z,35.21
2022-08-26T20:23:40.586Z,35.25
2022-08-26T20:30:05.237Z,35.23
2022-08-26T20:36:35.065Z,35.28
2022-08-26T20:43:09.144Z,35.28
2022-08-26T20:49:33.520Z,35.36
2022-08-26T20:56:00.481Z,35.32
2022-08-26T21:02:32.173Z,35.32
2022-08-26T21:09:09.473Z,35.31
2022-08-26T21:15:35.319Z,35.27
2022-08-26T21:22:06.593Z,35.37
2022-08-26T21:28:40.598Z,35.42
2022-08-26T21:35:06.602Z,35.43
2022-08-26T21:41:35.540Z,35.5
2022-08-26T21:48:12.221Z,35.5
2022-08-26T21:54:50.245Z,35.48
2022-08-26T22:01:29.830Z,35.54
2022-08-26T22:07:56.057Z,35.46
2022-08-26T22:14:30.964Z,35.28
2022-08-26T22:21:10.164Z,35.4
2022-08-26T22:27:45.266Z,35.16
2022-08-26T22:34:22.213Z,35.12
2022-08-26T22:40:59.212Z,35.08
2022-08-26T22:47:30.660Z,35.2
2022-08-26T22:54:10.109Z,35.15
2022-08-26T23:00:44.592Z,35.1
2022-08-26T23:07:14.195Z,35.08
2022-08-26T23:13:43.586Z,35.13
2022-08-26T23:20:31.405Z,35.16
2022-08-26T23:27:18.985Z,35.23
2022-08-26T23:33:43.296Z,35.24
2022-08-26T23:40:08.810Z,35.16
2022-08-26T23:46:40.803Z,35.2
2022-08-26T23:53:13.656Z,35.22
2022-08-26T23:59:45.612Z,35.26
